Time;durP1;ratioP1;P1;durP2;ratioP2;P2;SDS_P1;SDS_P2;PMS_P1;PMS_P2;Temp;Humidity;BMP_temperature;BMP_pressure;BME280_temperature;BME280_humidity;BME280_pressure;Samples;Min_cycle;Max_cycle;Signal;HPM_P1;HPM_P2
2021/12/22 00:01:09;;;;;;;35.50;22.50;;;;;;;-1.07;100.00;100678.03;5069837;28;20101;-81
2021/12/22 00:03:35;;;;;;;35.25;22.58;;;;;;;-1.02;100.00;100687.50;5052769;28;20037;-81
2021/12/22 00:06:00;;;;;;;35.65;22.58;;;;;;;-1.03;100.00;100687.50;5053063;28;20078;-82
2021/12/22 00:08:26;;;;;;;37.25;22.85;;;;;;;-1.05;100.00;100684.94;5065853;28;20063;-81
2021/12/22 00:10:52;;;;;;;38.30;22.08;;;;;;;-1.15;100.00;100664.28;5072278;28;20090;-81
2021/12/22 00:13:17;;;;;;;38.80;23.40;;;;;;;-0.95;100.00;100697.84;5071971;28;20546;-81
2021/12/22 00:15:43;;;;;;;40.75;24.30;;;;;;;-0.97;100.00;100696.97;5072289;28;20016;-81
2021/12/22 00:18:08;;;;;;;36.45;22.95;;;;;;;-1.08;100.00;100689.97;5070837;28;20020;-81
2021/12/22 00:20:34;;;;;;;41.47;24.67;;;;;;;-1.07;100.00;100693.38;5071643;28;20043;-81
2021/12/22 00:22:59;;;;;;;40.13;23.58;;;;;;;-1.12;100.00;100687.34;5072038;28;20484;-81
2021/12/22 00:25:26;;;;;;;39.22;24.98;;;;;;;-1.10;100.00;100688.22;5071815;28;20025;-81
2021/12/22 00:27:53;;;;;;;36.78;23.67;;;;;;;-0.97;100.00;100702.06;5071721;28;20526;-81
2021/12/22 00:30:19;;;;;;;35.78;24.25;;;;;;;-1.10;100.00;100680.53;5071929;28;20108;-81
2021/12/22 00:32:51;;;;;;;39.35;24.13;;;;;;;-0.98;100.00;100705.47;5070670;28;20115;-81
2021/12/22 00:35:19;;;;;;;39.15;23.48;;;;;;;-1.19;100.00;100675.28;5071739;28;20021;-81
2021/12/22 00:37:45;;;;;;;41.78;25.23;;;;;;;-1.10;100.00;100693.31;5070689;28;20399;-82
2021/12/22 00:40:11;;;;;;;37.35;23.63;;;;;;;-1.04;100.00;100709.66;5070544;28;20111;-82
2021/12/22 00:42:36;;;;;;;39.03;23.88;;;;;;;-1.15;100.00;100689.84;5071802;28;20032;-82
2021/12/22 00:45:02;;;;;;;36.70;21.75;;;;;;;-1.08;100.00;100710.44;5071885;28;20099;-81
2021/12/22 00:47:29;;;;;;;36.22;23.33;;;;;;;-1.09;100.00;100706.16;5070395;28;20032;-81
2021/12/22 00:49:55;;;;;;;38.15;23.88;;;;;;;-1.04;100.00;100717.31;5069114;28;20120;-81
2021/12/22 00:52:21;;;;;;;33.95;22.00;;;;;;;-1.08;100.00;100718.09;5068977;28;20446;-82
2021/12/22 00:54:47;;;;;;;37.55;21.63;;;;;;;-1.10;100.00;100722.31;5052011;28;20053;-81
2021/12/22 00:57:15;;;;;;;36.20;22.33;;;;;;;-1.10;100.00;100727.41;5069018;28;20044;-81
2021/12/22 00:59:41;;;;;;;38.15;23.15;;;;;;;-1.12;100.00;100720.56;5069308;28;20458;-81
2021/12/22 01:02:10;;;;;;;42.97;24.42;;;;;;;-1.17;100.00;100720.50;5052472;28;20025;-81
2021/12/22 01:04:36;;;;;;;38.10;23.38;;;;;;;-1.13;100.00;100727.38;5051884;28;20135;-82
2021/12/22 01:07:01;;;;;;;35.80;23.38;;;;;;;-1.18;100.00;100723.91;5069308;28;20106;-81
2021/12/22 01:09:27;;;;;;;40.15;24.63;;;;;;;-1.25;100.00;100716.94;5068801;28;20080;-81
2021/12/22 01:11:52;;;;;;;40.53;24.63;;;;;;;-1.24;100.00;100708.44;5069178;28;20526;-81
2021/12/22 01:14:18;;;;;;;40.42;24.75;;;;;;;-1.19;100.00;100721.28;5051908;28;20028;-81
2021/12/22 01:16:49;;;;;;;35.63;21.83;;;;;;;-1.17;100.00;100729.88;5069065;28;20052;-81
2021/12/22 01:19:22;;;;;;;41.65;24.02;;;;;;;-1.22;100.00;100719.56;5051985;28;20039;-82
2021/12/22 01:21:54;;;;;;;35.08;21.52;;;;;;;-1.16;100.00;100724.78;5070990;28;20040;-81
2021/12/22 01:24:30;;;;;;;33.78;21.95;;;;;;;-1.14;100.00;100735.00;5071324;28;20035;-81
2021/12/22 01:27:04;;;;;;;36.33;21.50;;;;;;;-1.22;100.00;100724.66;5071526;28;20111;-81
2021/12/22 01:29:31;;;;;;;35.80;22.08;;;;;;;-1.23;100.00;100734.84;5069907;28;20511;-81
2021/12/22 01:31:57;;;;;;;37.45;21.95;;;;;;;-1.33;100.00;100724.47;5070737;28;20021;-81
2021/12/22 01:34:24;;;;;;;33.08;21.55;;;;;;;-1.32;100.00;100733.84;5073388;28;20071;-82
2021/12/22 01:36:49;;;;;;;33.92;21.70;;;;;;;-1.24;100.00;100754.44;5075199;28;20029;-81
2021/12/22 01:39:15;;;;;;;37.15;22.08;;;;;;;-1.29;100.00;100733.91;5075239;28;20036;-81
2021/12/22 01:41:40;;;;;;;33.97;20.88;;;;;;;-1.28;100.00;100753.50;5073745;28;20082;-81
2021/12/22 01:44:08;;;;;;;33.38;22.73;;;;;;;-1.48;100.00;100729.25;5075040;28;20435;-81
2021/12/22 01:49:40;;;;;;;33.30;21.25;;;;;;;-1.41;100.00;100750.69;5074821;28;20077;-81
2021/12/22 01:52:06;;;;;;;36.97;20.48;;;;;;;-1.54;100.00;100727.47;5074903;28;20024;-81
2021/12/22 01:54:34;;;;;;;34.08;20.33;;;;;;;-1.41;100.00;100745.59;5072898;28;20532;-81
2021/12/22 01:57:06;;;;;;;34.45;21.17;;;;;;;-1.40;100.00;100747.31;5074716;28;20515;-81
2021/12/22 01:59:32;;;;;;;36.03;20.38;;;;;;;-1.40;100.00;100742.19;5074778;28;20421;-82
2021/12/22 02:01:59;;;;;;;36.88;21.60;;;;;;;-1.38;100.00;100749.06;5075066;28;20033;-81
2021/12/22 02:04:24;;;;;;;33.78;20.25;;;;;;;-1.49;100.00;100729.25;5073209;28;20117;-81
2021/12/22 02:06:50;;;;;;;35.10;20.63;;;;;;;-1.48;100.00;100736.06;5073209;28;20476;-81
2021/12/22 02:09:28;;;;;;;35.85;21.85;;;;;;;-1.39;100.00;100747.34;5074363;28;20388;-81
2021/12/22 02:11:53;;;;;;;30.33;20.40;;;;;;;-1.40;100.00;100737.09;5074186;28;20016;-82
2021/12/22 02:14:19;;;;;;;32.65;19.33;;;;;;;-1.40;100.00;100743.06;5074220;28;20474;-81
2021/12/22 02:16:44;;;;;;;34.17;20.73;;;;;;;-1.47;100.00;100728.47;5073263;28;20021;-81
2021/12/22 02:19:11;;;;;;;33.00;19.92;;;;;;;-1.40;100.00;100740.50;5072905;28;20392;-81
2021/12/22 02:21:46;;;;;;;33.92;18.70;;;;;;;-1.46;100.00;100726.75;5072774;28;20059;-81
2021/12/22 02:24:11;;;;;;;30.95;18.85;;;;;;;-1.41;100.00;100743.03;5072888;28;20198;-82
2021/12/22 02:26:47;;;;;;;30.60;18.92;;;;;;;-1.47;100.00;100735.25;5072709;28;20568;-82
2021/12/22 02:29:33;;;;;;;27.23;16.80;;;;;;;-1.50;100.00;100728.38;5072674;28;20115;-82
2021/12/22 02:32:05;;;;;;;31.58;19.25;;;;;;;-1.36;100.00;100743.97;5074173;28;20031;-82
2021/12/22 02:34:39;;;;;;;28.70;17.77;;;;;;;-1.43;100.00;100734.47;5072313;28;20119;-82
2021/12/22 02:37:10;;;;;;;31.85;18.70;;;;;;;-1.49;100.00;100719.88;5074088;28;20357;-83
2021/12/22 02:39:36;;;;;;;30.15;18.90;;;;;;;-1.41;100.00;100740.47;5072528;28;20400;-82
2021/12/22 02:42:01;;;;;;;31.02;19.65;;;;;;;-1.46;100.00;100724.22;5072634;28;20021;-82
2021/12/22 02:44:27;;;;;;;30.60;19.17;;;;;;;-1.55;100.00;100712.13;5072249;28;20590;-82
2021/12/22 02:46:52;;;;;;;30.85;19.02;;;;;;;-1.43;100.00;100737.03;5072439;28;20133;-82
2021/12/22 02:49:18;;;;;;;27.45;16.95;;;;;;;-1.42;100.00;100739.63;5073502;28;20032;-82
2021/12/22 02:51:43;;;;;;;26.58;17.23;;;;;;;-1.46;100.00;100744.66;5072621;28;20024;-82
2021/12/22 02:54:20;;;;;;;28.48;17.38;;;;;;;-1.46;100.00;100747.19;5072217;28;20052;-82
2021/12/22 03:02:06;;;;;;;28.73;18.35;;;;;;;-1.55;100.00;100748.75;5073424;28;20469;-82
2021/12/22 03:04:30;;;;;;;28.98;17.35;;;;;;;-1.69;100.00;100734.81;5073159;28;20396;-82
2021/12/22 03:07:03;;;;;;;33.20;19.58;;;;;;;-1.58;100.00;100756.34;5072248;28;20525;-82
2021/12/22 03:09:31;;;;;;;29.45;17.33;;;;;;;-1.62;100.00;100754.53;5073081;28;20028;-82
2021/12/22 03:12:00;;;;;;;30.27;17.27;;;;;;;-1.56;100.00;100756.34;5071898;28;20043;-82
2021/12/22 03:14:26;;;;;;;30.33;17.40;;;;;;;-1.56;100.00;100758.91;5072747;28;20033;-83
2021/12/22 03:16:53;;;;;;;27.17;15.82;;;;;;;-1.62;100.00;100754.53;5072081;28;20038;-82
2021/12/22 03:19:22;;;;;;;26.23;16.63;;;;;;;-1.62;100.00;100753.69;5071634;28;20051;-83
2021/12/22 03:21:51;;;;;;;26.02;15.90;;;;;;;-1.72;100.00;100739.88;5071815;28;20103;-82
2021/12/22 03:24:19;;;;;;;24.90;15.52;;;;;;;-1.72;100.00;100746.69;5071586;28;20063;-82
2021/12/22 03:26:45;;;;;;;27.73;16.40;;;;;;;-1.62;100.00;100766.47;5071473;28;20493;-82
2021/12/22 03:29:16;;;;;;;29.20;16.27;;;;;;;-1.74;100.00;100758.53;5073055;28;20036;-83
2021/12/22 03:31:43;;;;;;;25.23;15.80;;;;;;;-1.80;100.00;100749.94;5072998;28;20021;-82
2021/12/22 03:34:09;;;;;;;24.77;15.27;;;;;;;-1.84;100.00;100748.13;5071538;28;20040;-82
2021/12/22 03:36:36;;;;;;;25.48;15.40;;;;;;;-1.71;100.00;100776.50;5072538;28;20028;-82
2021/12/22 03:39:04;;;;;;;27.15;17.17;;;;;;;-1.80;100.00;100759.28;5072692;28;20503;-82
2021/12/22 03:41:30;;;;;;;25.30;16.02;;;;;;;-1.86;100.00;100762.53;5071038;28;20123;-82
2021/12/22 03:43:55;;;;;;;25.90;15.77;;;;;;;-1.80;100.00;100766.94;5071327;28;20127;-82
2021/12/22 03:46:21;;;;;;;23.90;15.00;;;;;;;-1.83;100.00;100774.53;5072475;28;20028;-82
2021/12/22 03:48:46;;;;;;;25.55;16.20;;;;;;;-1.84;100.00;100775.38;5071273;28;20108;-82
2021/12/22 03:51:12;;;;;;;27.17;15.88;;;;;;;-1.89;100.00;100780.38;5070973;28;20056;-82
2021/12/22 03:53:37;;;;;;;25.77;15.80;;;;;;;-2.10;100.00;100744.16;5070941;28;20060;-82
2021/12/22 03:56:03;;;;;;;30.42;16.10;;;;;;;-1.98;100.00;100766.53;5072080;28;20033;-82
2021/12/22 03:58:29;;;;;;;28.73;16.42;;;;;;;-1.93;100.00;100778.59;5072211;28;20039;-82
2021/12/22 04:00:55;;;;;;;24.95;16.70;;;;;;;-1.93;100.00;100781.13;5072435;28;20029;-82
2021/12/22 04:03:23;;;;;;;27.67;16.98;;;;;;;-1.97;100.00;100771.69;5070864;28;20368;-82
2021/12/22 04:05:48;;;;;;;27.95;16.67;;;;;;;-1.99;100.00;100770.78;5070991;28;20028;-82
2021/12/22 04:08:17;;;;;;;27.17;16.92;;;;;;;-2.09;100.00;100756.09;5071949;28;20032;-82
2021/12/22 04:10:44;;;;;;;22.80;15.07;;;;;;;-2.14;100.00;100742.38;5071997;28;20431;-82
2021/12/22 04:13:09;;;;;;;24.30;15.70;;;;;;;-2.16;100.00;100742.31;5070968;28;20112;-82
2021/12/22 04:15:35;;;;;;;28.20;16.60;;;;;;;-2.02;100.00;100761.38;5070792;28;20111;-82
2021/12/22 04:18:01;;;;;;;23.38;15.15;;;;;;;-1.95;100.00;100766.59;5049305;28;20044;-82
2021/12/22 04:20:28;;;;;;;24.90;14.88;;;;;;;-1.88;100.00;100769.31;5049311;28;20037;-82
2021/12/22 04:22:54;;;;;;;21.98;14.50;;;;;;;-1.94;100.00;100758.97;5032706;28;20081;-82
2021/12/22 04:25:21;;;;;;;29.63;18.67;;;;;;;-1.86;100.00;100780.41;5032456;28;20033;-82
2021/12/22 04:27:51;;;;;;;25.60;14.65;;;;;;;-1.88;100.00;100779.53;5049436;28;20041;-82
2021/12/22 04:30:17;;;;;;;22.47;14.13;;;;;;;-1.81;100.00;100783.97;5049474;28;20472;-82
2021/12/22 04:32:42;;;;;;;19.50;12.98;;;;;;;-1.82;100.00;100784.75;5032515;28;20829;-82
2021/12/22 04:35:08;;;;;;;23.40;13.23;;;;;;;-1.81;100.00;100788.22;5032771;28;20025;-82
2021/12/22 04:37:34;;;;;;;21.20;14.02;;;;;;;-1.95;100.00;100770.00;5032481;28;20051;-82
2021/12/22 04:39:59;;;;;;;22.85;14.60;;;;;;;-1.86;100.00;100800.84;5032625;28;20120;-82
2021/12/22 04:42:24;;;;;;;21.10;13.23;;;;;;;-2.11;100.00;100753.50;5032461;28;20115;-81
2021/12/22 04:44:53;;;;;;;18.52;12.77;;;;;;;-1.93;100.00;100783.69;5049417;28;20116;-82
2021/12/22 04:47:19;;;;;;;24.15;14.65;;;;;;;-1.85;100.00;100797.50;5032361;28;20472;-82
2021/12/22 04:49:45;;;;;;;23.25;12.68;;;;;;;-1.91;100.00;100784.56;5067485;28;20119;-82
2021/12/22 04:52:15;;;;;;;21.58;13.10;;;;;;;-1.85;100.00;100788.97;5071674;28;20551;-82
2021/12/22 04:54:49;;;;;;;20.75;13.25;;;;;;;-1.89;100.00;100776.97;5070358;28;20056;-82
2021/12/22 04:57:15;;;;;;;19.45;12.38;;;;;;;-1.83;100.00;100800.06;5070314;28;20380;-82
2021/12/22 04:59:40;;;;;;;24.30;15.65;;;;;;;-1.85;100.00;100810.25;5070357;28;20029;-82
2021/12/22 05:02:05;;;;;;;21.70;12.52;;;;;;;-1.91;100.00;100805.00;5070311;28;20021;-82
2021/12/22 05:04:31;;;;;;;19.95;12.10;;;;;;;-1.97;100.00;100806.56;5071432;28;20583;-82
2021/12/22 05:06:56;;;;;;;15.88;11.15;;;;;;;-1.96;100.00;100815.94;5070836;28;20051;-82
2021/12/22 05:09:22;;;;;;;17.80;12.10;;;;;;;-2.04;100.00;100810.66;5075602;28;20029;-82
2021/12/22 05:11:48;;;;;;;16.45;11.98;;;;;;;-2.04;100.00;100811.53;5075802;28;20078;-82
2021/12/22 05:14:13;;;;;;;17.73;12.63;;;;;;;-2.13;100.00;100792.59;5074028;28;20025;-82
2021/12/22 05:16:45;;;;;;;23.92;14.75;;;;;;;-2.17;100.00;100788.25;5074233;28;20107;-82
2021/12/22 05:19:14;;;;;;;37.15;18.75;;;;;;;-2.09;100.00;100800.34;5074037;28;20035;-82
2021/12/22 05:21:40;;;;;;;38.25;18.55;;;;;;;-2.03;100.00;100808.13;5073999;28;20099;-82
2021/12/22 05:24:05;;;;;;;23.90;13.20;;;;;;;-1.95;100.00;100815.13;5074151;28;20059;-82
2021/12/22 05:26:31;;;;;;;21.20;13.02;;;;;;;-2.11;100.00;100796.88;5075279;28;20476;-82
2021/12/22 05:28:56;;;;;;;20.90;13.05;;;;;;;-1.98;100.00;100821.03;5072661;28;20045;-82
2021/12/22 05:31:23;;;;;;;17.27;11.27;;;;;;;-2.10;100.00;100803.72;5055833;28;20101;-82
2021/12/22 05:33:50;;;;;;;18.92;12.40;;;;;;;-1.97;100.00;100820.19;5072962;28;20047;-82
2021/12/22 05:36:15;;;;;;;18.85;12.82;;;;;;;-2.05;100.00;100817.47;5055885;28;20028;-82
2021/12/22 05:38:41;;;;;;;19.45;12.13;;;;;;;-2.13;100.00;100802.78;5056100;28;20480;-81
2021/12/22 05:41:06;;;;;;;18.98;12.57;;;;;;;-2.03;100.00;100826.00;5056014;28;20477;-82
2021/12/22 05:43:32;;;;;;;16.83;10.85;;;;;;;-1.96;100.00;100833.81;5072495;28;20063;-82
2021/12/22 05:45:58;;;;;;;15.77;10.95;;;;;;;-2.29;100.00;100788.81;5055931;28;20032;-82
2021/12/22 05:48:24;;;;;;;16.10;9.95;;;;;;;-2.03;100.00;100835.34;5072354;28;20046;-82
2021/12/22 05:50:52;;;;;;;14.60;9.55;;;;;;;-2.06;100.00;100835.31;5072322;28;20365;-82
2021/12/22 05:53:18;;;;;;;14.55;9.10;;;;;;;-2.10;100.00;100833.50;5071957;28;20490;-82
2021/12/22 05:55:43;;;;;;;14.23;9.90;;;;;;;-2.13;100.00;100818.97;5072263;28;20040;-82
2021/12/22 05:58:09;;;;;;;19.40;12.20;;;;;;;-2.11;100.00;100826.66;5072338;28;20048;-82
2021/12/22 06:00:35;;;;;;;19.08;11.63;;;;;;;-2.12;100.00;100833.44;5068307;28;20037;-82
2021/12/22 06:03:00;;;;;;;24.35;13.98;;;;;;;-2.18;100.00;100829.91;5074440;28;20037;-82
2021/12/22 06:05:26;;;;;;;16.17;11.07;;;;;;;-2.17;100.00;100836.72;5073212;28;20039;-82
2021/12/22 06:07:51;;;;;;;16.70;10.38;;;;;;;-2.17;100.00;100839.28;5074764;28;20585;-82
2021/12/22 06:10:16;;;;;;;16.95;10.15;;;;;;;-2.29;100.00;100833.03;5073057;28;20025;-82
2021/12/22 06:12:42;;;;;;;16.08;9.80;;;;;;;-2.21;100.00;100842.59;5073078;28;20395;-82
2021/12/22 06:15:08;;;;;;;13.90;9.35;;;;;;;-2.34;100.00;100833.78;5074339;28;20043;-82
2021/12/22 06:17:34;;;;;;;14.48;9.48;;;;;;;-2.24;100.00;100852.72;5072235;28;20033;-82
2021/12/22 06:19:59;;;;;;;14.77;10.23;;;;;;;-2.21;100.00;100860.44;5073052;28;20025;-82
2021/12/22 06:22:26;;;;;;;15.65;9.27;;;;;;;-2.22;100.00;100856.19;5073168;28;20086;-82
2021/12/22 06:24:52;;;;;;;17.27;10.50;;;;;;;-2.32;100.00;100843.19;5072924;28;20119;-82
2021/12/22 06:27:17;;;;;;;15.85;10.45;;;;;;;-2.20;100.00;100863.03;5072733;28;20119;-82
2021/12/22 06:29:43;;;;;;;19.90;12.27;;;;;;;-2.20;100.00;100865.56;5074605;28;20589;-82
2021/12/22 06:32:08;;;;;;;18.58;10.15;;;;;;;-2.26;100.00;100868.00;5072587;28;20112;-82
2021/12/22 06:34:33;;;;;;;18.38;12.18;;;;;;;-2.28;100.00;100865.38;5073590;28;20116;-82
2021/12/22 06:36:59;;;;;;;16.35;10.88;;;;;;;-2.32;100.00;100871.25;5072804;28;20021;-82
2021/12/22 06:39:25;;;;;;;18.42;11.65;;;;;;;-2.48;100.00;100842.78;5072586;28;20083;-82
2021/12/22 06:41:50;;;;;;;18.77;13.98;;;;;;;-2.36;100.00;100858.38;5072629;28;20027;-82
2021/12/22 06:44:15;;;;;;;23.60;14.23;;;;;;;-2.30;100.00;100867.06;5073740;28;20029;-82
2021/12/22 06:46:42;;;;;;;16.98;11.25;;;;;;;-2.31;100.00;100864.47;5073550;28;20067;-82
2021/12/22 06:49:09;;;;;;;26.23;16.20;;;;;;;-2.30;100.00;100866.19;5072315;28;20040;-82
2021/12/22 06:51:35;;;;;;;27.20;17.63;;;;;;;-2.47;100.00;100840.25;5073643;28;20518;-82
2021/12/22 06:54:00;;;;;;;25.25;16.85;;;;;;;-2.28;100.00;100865.38;5072121;28;20052;-82
2021/12/22 06:56:25;;;;;;;19.80;14.05;;;;;;;-2.30;100.00;100866.19;5073486;28;20032;-82
2021/12/22 06:58:51;;;;;;;18.67;13.85;;;;;;;-2.27;100.00;100872.25;5072185;28;20166;-82
2021/12/22 07:01:19;;;;;;;21.63;13.93;;;;;;;-2.19;100.00;100871.53;5073265;28;20077;-82
2021/12/22 07:03:45;;;;;;;24.10;14.85;;;;;;;-2.28;100.00;100860.28;5073286;28;20031;-82
2021/12/22 07:06:11;;;;;;;23.33;15.05;;;;;;;-2.18;100.00;100871.59;5073543;28;20056;-83
2021/12/22 07:08:36;;;;;;;21.25;14.43;;;;;;;-2.23;100.00;100868.06;5073457;28;20064;-82
2021/12/22 07:11:01;;;;;;;18.65;13.93;;;;;;;-2.21;100.00;100868.97;5071963;28;20025;-82
2021/12/22 07:13:27;;;;;;;20.08;13.05;;;;;;;-2.17;100.00;100875.88;5071753;28;20574;-82
2021/12/22 07:15:52;;;;;;;17.08;11.55;;;;;;;-2.09;100.00;100889.69;5071902;28;20422;-82
2021/12/22 07:18:18;;;;;;;16.50;10.80;;;;;;;-2.23;100.00;100872.28;5071383;28;20580;-82
2021/12/22 07:20:43;;;;;;;27.95;16.20;;;;;;;-2.28;100.00;100862.84;5072986;28;20563;-82
2021/12/22 07:23:09;;;;;;;25.25;16.52;;;;;;;-2.24;100.00;100865.47;5073464;28;20036;-82
2021/12/22 07:25:34;;;;;;;34.78;24.45;;;;;;;-2.11;100.00;100888.78;5071488;28;20024;-82
2021/12/22 07:28:00;;;;;;;34.00;24.00;;;;;;;-2.11;100.00;100875.16;5071560;28;20077;-82
2021/12/22 07:30:26;;;;;;;45.45;28.98;;;;;;;-2.21;100.00;100866.41;5071736;28;20017;-82
2021/12/22 07:32:51;;;;;;;46.80;27.55;;;;;;;-2.14;100.00;100880.19;5071247;28;20043;-82
2021/12/22 07:35:46;;;;;;;38.13;24.40;;;;;;;-2.16;100.00;100880.13;5072713;28;20028;-82
2021/12/22 07:38:27;;;;;;;32.05;19.67;;;;;;;-2.15;100.00;100887.00;5072726;28;20032;-82
2021/12/22 07:40:56;;;;;;;57.05;27.45;;;;;;;-2.22;100.00;100874.03;5072710;28;20033;-82
2021/12/22 07:43:22;;;;;;;32.63;18.17;;;;;;;-2.16;100.00;100887.81;5071223;28;20036;-82
2021/12/22 07:45:48;;;;;;;111.68;40.47;;;;;;;-2.20;100.00;100885.13;5071346;28;20029;-82
2021/12/22 07:48:13;;;;;;;45.53;24.02;;;;;;;-2.23;100.00;100891.03;5071101;28;20051;-82
2021/12/22 07:50:39;;;;;;;46.33;24.55;;;;;;;-2.17;100.00;100897.97;5072688;28;20048;-88
2021/12/22 07:53:04;;;;;;;37.00;21.90;;;;;;;-2.21;100.00;100897.03;5071740;28;20081;-85
2021/12/22 07:55:30;;;;;;;43.13;25.67;;;;;;;-2.31;100.00;100887.44;5070605;28;20045;-85
2021/12/22 07:57:56;;;;;;;57.72;34.63;;;;;;;-2.32;100.00;100896.78;5070946;28;20109;-84
2021/12/22 08:00:21;;;;;;;36.75;20.45;;;;;;;-2.22;100.00;100905.53;5072494;28;20035;-84
2021/12/22 08:02:46;;;;;;;33.22;18.05;;;;;;;-2.25;100.00;100900.34;5071041;28;20029;-85
2021/12/22 08:05:12;;;;;;;27.55;15.32;;;;;;;-2.16;100.00;100899.69;5070772;28;20479;-84
2021/12/22 08:07:37;;;;;;;40.50;21.08;;;;;;;-2.16;100.00;100880.13;5072223;28;20043;-84
2021/12/22 08:10:04;;;;;;;48.88;24.23;;;;;;;-2.01;100.00;100895.84;5070761;28;20028;-84
2021/12/22 08:12:30;;;;;;;45.10;23.02;;;;;;;-2.07;100.00;100869.28;5070384;28;20555;-84
2021/12/22 08:14:56;;;;;;;24.08;15.40;;;;;;;-1.86;100.00;100899.56;5070800;28;20115;-84
2021/12/22 08:17:25;;;;;;;17.40;11.77;;;;;;;-1.94;100.00;100891.72;5070697;28;20043;-84
2021/12/22 08:19:51;;;;;;;17.38;10.85;;;;;;;-1.95;100.00;100891.69;5059436;28;20695;-84
2021/12/22 08:22:16;;;;;;;18.35;13.38;;;;;;;-1.90;100.00;100887.56;5056890;28;20028;-85
2021/12/22 08:24:41;;;;;;;30.08;16.73;;;;;;;-1.68;100.00;100894.06;5062574;28;20048;-84
2021/12/22 08:27:07;;;;;;;26.05;16.52;;;;;;;-1.65;100.00;100879.63;5061311;28;20029;-84
2021/12/22 08:29:32;;;;;;;25.25;15.73;;;;;;;-1.54;100.00;100885.00;5060003;28;20016;-84
2021/12/22 08:31:58;;;;;;;25.92;16.55;;;;;;;-1.57;100.00;100895.16;5061180;28;20100;-85
2021/12/22 08:34:35;;;;;;;54.13;22.13;;;;;;;-1.62;100.00;100877.16;5073895;28;20454;-85
2021/12/22 08:39:45;;;;;;;47.60;33.75;;;;;;;-1.34;100.00;100898.22;5085922;28;20113;-84
2021/12/22 08:42:10;;;;;;;30.90;19.88;;;;;;;-1.32;100.00;100910.19;5072196;28;20067;-84
2021/12/22 08:44:36;;;;;;;29.27;16.88;;;;;;;-1.31;100.00;100903.38;5069334;28;20035;-84
2021/12/22 08:47:02;;;;;;;25.30;16.60;;;;;;;-1.35;100.00;100896.47;5055182;28;20621;-84
2021/12/22 08:49:29;;;;;;;21.52;14.68;;;;;;;-1.32;100.00;100922.97;5059750;28;20033;-84
2021/12/22 08:51:55;;;;;;;24.73;17.02;;;;;;;-1.39;100.00;100910.91;5074331;28;20499;-84
2021/12/22 08:54:21;;;;;;;28.35;17.10;;;;;;;-1.36;100.00;100917.75;5063927;28;20044;-83
2021/12/22 08:56:46;;;;;;;28.85;16.80;;;;;;;-1.43;100.00;100909.13;5088588;28;20036;-83
2021/12/22 08:59:14;;;;;;;34.20;18.17;;;;;;;-1.40;100.00;100911.72;5071370;28;20055;-84
2021/12/22 09:01:40;;;;;;;32.80;18.60;;;;;;;-1.35;100.00;100917.81;5072404;28;20031;-84
2021/12/22 09:04:06;;;;;;;29.80;18.35;;;;;;;-1.33;100.00;100910.16;5072238;28;20038;-84
2021/12/22 09:06:32;;;;;;;30.75;18.50;;;;;;;-1.30;100.00;100915.34;5052276;28;20112;-84
2021/12/22 09:08:58;;;;;;;29.48;19.98;;;;;;;-1.21;100.00;100925.78;5050306;28;20033;-84
2021/12/22 09:11:24;;;;;;;33.83;19.58;;;;;;;-1.13;100.00;100925.94;5051156;28;20021;-84
2021/12/22 09:13:51;;;;;;;32.97;19.60;;;;;;;-1.08;100.00;100920.09;5049794;28;20114;-84
2021/12/22 09:16:17;;;;;;;44.50;24.58;;;;;;;-1.04;99.93;100913.34;5049749;28;20033;-84
2021/12/22 09:18:43;;;;;;;23.88;14.88;;;;;;;-0.96;99.54;100913.50;5049782;28;20119;-84
2021/12/22 09:21:11;;;;;;;20.38;13.57;;;;;;;-0.84;99.80;100913.75;5049705;28;20033;-84
2021/12/22 09:23:37;;;;;;;20.77;13.45;;;;;;;-0.72;99.43;100910.56;5049732;28;20457;-84
2021/12/22 09:26:03;;;;;;;24.25;15.30;;;;;;;-0.69;99.39;100902.94;5050000;28;20021;-84
2021/12/22 09:28:29;;;;;;;25.48;15.07;;;;;;;-0.80;99.56;100885.72;5051023;28;20082;-84
2021/12/22 09:30:55;;;;;;;28.63;15.95;;;;;;;-0.58;98.28;100912.56;5049909;28;20021;-84
2021/12/22 09:33:23;;;;;;;33.55;19.92;;;;;;;-0.49;98.18;100911.84;5050755;28;20396;-84
2021/12/22 09:35:49;;;;;;;30.90;18.13;;;;;;;-0.42;98.01;100900.03;5063267;28;20024;-84
2021/12/22 09:38:15;;;;;;;37.45;19.77;;;;;;;-0.32;97.63;100922.41;5055004;28;20037;-84
2021/12/22 09:40:41;;;;;;;38.55;18.33;;;;;;;-0.36;97.91;100908.69;5063397;28;20107;-84
2021/12/22 09:43:07;;;;;;;29.85;15.65;;;;;;;-0.36;98.20;100905.28;5069826;28;20093;-84
2021/12/22 09:45:36;;;;;;;26.20;14.75;;;;;;;-0.36;97.67;100903.56;5069455;28;20115;-84
2021/12/22 09:50:46;;;;;;;;;;;;;;;-0.25;97.66;100911.44;5071541;28;20476;-84
2021/12/22 09:53:13;;;;;;;20.02;12.00;;;;;;;-0.24;97.58;100905.50;5070755;28;19919;-84
2021/12/22 09:55:40;;;;;;;17.23;11.98;;;;;;;-0.43;97.32;100871.00;5073088;28;20059;-84
2021/12/22 09:58:06;;;;;;;33.72;19.27;;;;;;;-0.23;97.51;100886.72;5073202;28;20036;-84
2021/12/22 10:00:35;;;;;;;31.65;19.70;;;;;;;-0.23;97.32;100880.75;5074116;28;20246;-84
2021/12/22 10:03:01;;;;;;;31.50;20.05;;;;;;;-0.17;97.16;100888.50;5073361;28;20029;-84
2021/12/22 10:05:27;;;;;;;29.90;20.05;;;;;;;-0.23;96.43;100881.59;5073156;28;20040;-84
2021/12/22 10:08:14;;;;;;;30.17;19.65;;;;;;;-0.15;96.59;100895.41;5073148;28;20025;-84
2021/12/22 10:10:50;;;;;;;23.65;18.42;;;;;;;-0.14;96.09;100899.66;5072888;28;20507;-85
2021/12/22 10:13:36;;;;;;;48.95;36.50;;;;;;;-0.23;95.95;100883.31;5054484;28;20041;-84
2021/12/22 10:16:19;;;;;;;49.28;37.00;;;;;;;-0.26;96.33;100879.84;5034815;28;20037;-84
2021/12/22 10:18:46;;;;;;;15.55;11.65;;;;;;;-0.21;95.71;100886.72;5056271;28;20044;-84
2021/12/22 10:21:29;;;;;;;24.58;17.67;;;;;;;-0.25;96.46;100885.84;5050710;28;20059;-84
2021/12/22 10:24:06;;;;;;;24.75;16.42;;;;;;;-0.22;96.33;100882.47;5031490;28;20080;-84
2021/12/22 10:26:35;;;;;;;54.22;37.13;;;;;;;-0.35;96.00;100863.47;5040380;28;20040;-84
2021/12/22 10:29:06;;;;;;;25.05;16.50;;;;;;;-0.28;95.02;100871.28;5054862;28;20102;-84
2021/12/22 10:31:45;;;;;;;17.13;11.85;;;;;;;-0.20;94.45;100878.25;5054452;28;20116;-84
2021/12/22 10:34:14;;;;;;;17.45;11.75;;;;;;;-0.33;94.11;100857.56;5048914;28;20053;-84
2021/12/22 10:37:04;;;;;;;21.05;12.30;;;;;;;-0.24;93.54;100874.75;5034828;28;20037;-84
2021/12/22 10:39:32;;;;;;;23.48;14.82;;;;;;;-0.17;93.77;100876.59;5034511;28;20091;-84
2021/12/22 10:42:16;;;;;;;24.85;15.52;;;;;;;-0.09;93.73;100880.13;5034641;28;20037;-84
2021/12/22 10:44:47;;;;;;;18.63;11.70;;;;;;;-0.02;93.38;100879.38;5034514;28;20686;-84
2021/12/22 10:47:14;;;;;;;20.88;13.98;;;;;;;0.03;93.54;100873.47;5039657;28;20048;-83
2021/12/22 10:49:40;;;;;;;22.50;13.70;;;;;;;0.04;93.66;100870.94;5073790;28;20083;-84
2021/12/22 10:52:07;;;;;;;20.10;13.60;;;;;;;0.06;93.75;100873.53;5086577;28;20020;-84
2021/12/22 10:54:35;;;;;;;21.73;14.20;;;;;;;0.02;93.60;100852.13;5090734;28;20101;-84
2021/12/22 10:57:12;;;;;;;16.17;11.50;;;;;;;0.05;91.75;100852.19;5074255;28;20032;-84
2021/12/22 10:59:50;;;;;;;18.13;11.60;;;;;;;0.17;91.33;100866.84;5074213;28;20497;-84
2021/12/22 11:02:22;;;;;;;14.40;10.88;;;;;;;0.06;90.98;100856.47;5074024;28;20063;-84
2021/12/22 11:04:49;;;;;;;17.83;11.75;;;;;;;0.08;90.92;100854.78;5074046;28;20459;-84
2021/12/22 11:07:26;;;;;;;16.08;11.40;;;;;;;0.15;91.69;100860.88;5073790;28;20081;-84
2021/12/22 11:09:53;;;;;;;16.67;10.98;;;;;;;-0.06;90.65;100834.06;5074106;28;20040;-84
2021/12/22 11:12:36;;;;;;;15.57;11.77;;;;;;;-0.23;90.39;100826.97;5073797;28;20430;-84
2021/12/22 11:15:03;;;;;;;18.10;11.85;;;;;;;-0.38;90.87;100825.91;5073882;28;20055;-84
2021/12/22 11:17:29;;;;;;;29.60;19.63;;;;;;;-0.62;91.33;100802.44;5090714;28;20082;-84
2021/12/22 11:19:58;;;;;;;36.08;20.10;;;;;;;-0.51;91.88;100818.81;5073641;28;20549;-84